createdAt,value
2022-11-03T00:02:04.933Z,0.60
2022-11-03T00:04:40.252Z,0.60
2022-11-03T00:07:20.290Z,0.55
2022-11-03T00:09:55.987Z,0.55
2022-11-03T00:12:33.341Z,0.50
2022-11-03T00:15:08.899Z,0.70
2022-11-03T00:17:51.849Z,0.60
2022-11-03T00:20:27.263Z,0.60
2022-11-03T00:23:05.184Z,0.60
2022-11-03T00:25:41.221Z,0.70
2022-11-03T00:28:18.795Z,0.70
2022-11-03T00:30:53.229Z,0.60
2022-11-03T00:33:29.697Z,0.70
2022-11-03T00:36:04.916Z,0.50
2022-11-03T00:38:41.581Z,0.55
2022-11-03T00:41:19.524Z,0.70
2022-11-03T00:43:57.374Z,0.70
2022-11-03T00:46:36.749Z,0.55
2022-11-03T00:49:12.321Z,0.70
2022-11-03T00:51:47.623Z,0.57
2022-11-03T00:54:24.878Z,0.68
2022-11-03T00:57:00.661Z,0.52
2022-11-03T00:59:36.736Z,0.60
2022-11-03T01:02:12.682Z,0.60
2022-11-03T01:05:04.618Z,0.70
2022-11-03T01:07:40.278Z,0.70
2022-11-03T01:10:18.745Z,0.77
2022-11-03T01:12:55.647Z,0.60
2022-11-03T01:15:31.313Z,0.50
2022-11-03T01:18:06.398Z,0.60
2022-11-03T01:20:42.172Z,0.40
2022-11-03T01:23:17.857Z,0.45
2022-11-03T01:25:55.909Z,0.60
2022-11-03T01:28:31.717Z,0.60
2022-11-03T01:31:13.641Z,0.47
2022-11-03T01:33:50.057Z,0.47
2022-11-03T01:36:25.983Z,0.50
2022-11-03T01:39:01.725Z,0.73
2022-11-03T01:41:39.782Z,0.68
2022-11-03T01:44:42.226Z,0.70
2022-11-03T01:47:31.398Z,0.70
2022-11-03T01:50:11.199Z,0.80
2022-11-03T01:52:52.530Z,0.70
2022-11-03T01:55:33.374Z,0.60
2022-11-03T01:58:16.131Z,0.70
2022-11-03T02:00:55.966Z,0.52
2022-11-03T02:03:36.271Z,0.82
2022-11-03T02:06:13.156Z,0.60
2022-11-03T02:08:54.315Z,0.70
2022-11-03T02:11:45.566Z,0.80
2022-11-03T02:14:23.501Z,0.57
2022-11-03T02:17:02.391Z,0.68
2022-11-03T02:19:40.707Z,0.77
2022-11-03T02:22:51.694Z,0.70
2022-11-03T02:25:54.068Z,0.63
2022-11-03T02:28:31.603Z,0.82
2022-11-03T02:31:11.091Z,0.73
2022-11-03T02:33:52.915Z,0.60
2022-11-03T02:36:36.372Z,0.70
2022-11-03T02:39:18.463Z,0.70
2022-11-03T02:41:57.618Z,0.73
2022-11-03T02:44:34.305Z,0.60
2022-11-03T02:47:14.148Z,0.45
2022-11-03T02:50:15.199Z,0.60
2022-11-03T02:52:54.192Z,0.60
2022-11-03T02:55:38.470Z,0.70
2022-11-03T02:58:23.382Z,0.70
2022-11-03T03:00:59.926Z,0.55
2022-11-03T03:03:41.818Z,0.60
2022-11-03T03:06:21.629Z,0.82
2022-11-03T03:09:02.871Z,0.70
2022-11-03T03:11:41.666Z,0.50
2022-11-03T03:14:20.292Z,0.40
2022-11-03T03:16:58.960Z,0.60
2022-11-03T03:19:39.755Z,0.57
2022-11-03T03:22:17.756Z,0.60
2022-11-03T03:24:55.740Z,0.50
2022-11-03T03:27:32.417Z,0.60
2022-11-03T03:30:10.488Z,0.50
2022-11-03T03:32:49.400Z,0.60
2022-11-03T03:35:28.547Z,0.40
2022-11-03T03:38:08.744Z,0.32
2022-11-03T03:40:46.158Z,0.50
2022-11-03T03:43:22.140Z,0.50
2022-11-03T03:46:02.214Z,0.70
2022-11-03T03:48:37.095Z,0.50
2022-11-03T03:51:34.311Z,0.60
2022-11-03T03:54:09.499Z,0.60
2022-11-03T03:56:47.642Z,0.70
2022-11-03T03:59:22.472Z,0.77
2022-11-03T04:01:59.729Z,0.40
2022-11-03T04:04:38.071Z,0.50
2022-11-03T04:07:28.655Z,0.38
2022-11-03T04:10:06.223Z,0.50
2022-11-03T04:12:56.787Z,0.50
2022-11-03T04:15:59.145Z,0.47
2022-11-03T04:18:51.487Z,0.70
2022-11-03T04:21:42.453Z,0.55
2022-11-03T04:24:17.549Z,0.60
2022-11-03T04:26:53.191Z,0.50
2022-11-03T04:29:28.046Z,0.60
2022-11-03T04:32:04.715Z,0.70
2022-11-03T04:34:42.020Z,0.60
2022-11-03T04:37:18.363Z,0.50
2022-11-03T04:39:59.468Z,0.32
2022-11-03T04:42:39.510Z,0.50
2022-11-03T04:45:22.398Z,0.65
2022-11-03T04:47:57.233Z,0.30
2022-11-03T04:50:34.665Z,0.47
2022-11-03T04:53:21.724Z,0.50
2022-11-03T04:56:00.410Z,0.60
2022-11-03T04:58:39.384Z,0.50
2022-11-03T05:01:23.939Z,0.50
2022-11-03T05:04:00.112Z,0.57
2022-11-03T05:06:39.415Z,0.50
2022-11-03T05:09:21.656Z,0.40
2022-11-03T05:11:57.166Z,0.40
2022-11-03T05:14:35.927Z,0.60
2022-11-03T05:17:13.526Z,0.57
2022-11-03T05:19:48.834Z,0.63
2022-11-03T05:22:27.148Z,0.90
2022-11-03T05:25:04.753Z,0.98
2022-11-03T05:27:42.381Z,1.15
2022-11-03T05:30:20.707Z,0.80
2022-11-03T05:32:57.790Z,0.98
2022-11-03T05:35:33.777Z,1.00
2022-11-03T05:38:14.770Z,0.80
2022-11-03T05:40:50.257Z,1.30
2022-11-03T05:43:25.764Z,1.00
2022-11-03T05:48:48.265Z,1.20
2022-11-03T05:51:26.952Z,0.95
2022-11-03T05:54:08.737Z,0.95
2022-11-03T05:56:44.472Z,1.00
2022-11-03T05:59:22.201Z,1.10
2022-11-03T06:01:59.148Z,0.90
2022-11-03T06:04:36.149Z,1.00
2022-11-03T06:07:19.327Z,1.00
2022-11-03T06:09:58.047Z,0.95
2022-11-03T06:12:36.938Z,0.95
2022-11-03T06:15:22.414Z,1.13
2022-11-03T06:17:57.813Z,1.13
2022-11-03T06:20:36.988Z,1.25
2022-11-03T06:23:17.277Z,1.20
2022-11-03T06:25:56.667Z,1.10
2022-11-03T06:28:34.349Z,1.20
2022-11-03T06:31:13.905Z,1.27
2022-11-03T06:33:50.494Z,1.13
2022-11-03T06:36:29.650Z,1.25
2022-11-03T06:39:07.255Z,1.45
2022-11-03T06:41:44.950Z,1.25
2022-11-03T06:44:29.950Z,1.55
2022-11-03T06:47:14.246Z,1.20
2022-11-03T06:49:50.415Z,1.33
2022-11-03T06:52:38.465Z,1.30
2022-11-03T06:55:29.558Z,1.40
2022-11-03T06:58:13.249Z,1.30
2022-11-03T07:00:51.248Z,1.50
2022-11-03T07:03:32.413Z,1.60
2022-11-03T07:06:09.829Z,1.50
2022-11-03T07:08:50.638Z,1.60
2022-11-03T07:11:27.842Z,1.50
2022-11-03T07:14:15.392Z,1.90
2022-11-03T07:16:52.587Z,1.40
2022-11-03T07:19:31.745Z,1.33
2022-11-03T07:22:11.719Z,1.65
2022-11-03T07:24:53.674Z,1.90
2022-11-03T07:27:32.622Z,1.73
2022-11-03T07:30:21.213Z,1.60
2022-11-03T07:32:58.899Z,1.70
2022-11-03T07:36:13.251Z,1.65
2022-11-03T07:38:41.594Z,1.70
2022-11-03T07:41:25.011Z,1.77
2022-11-03T07:44:03.712Z,1.65
2022-11-03T07:46:42.735Z,1.60
2022-11-03T07:49:31.845Z,2.00
2022-11-03T07:52:15.933Z,1.95
2022-11-03T07:54:52.854Z,1.70
2022-11-03T07:57:33.867Z,2.00
2022-11-03T08:00:12.138Z,1.75
2022-11-03T08:02:54.405Z,1.88
2022-11-03T08:05:31.495Z,2.40
2022-11-03T08:08:08.218Z,2.10
2022-11-03T08:10:44.401Z,2.00
2022-11-03T08:13:23.289Z,2.20
2022-11-03T08:16:01.431Z,1.92
2022-11-03T08:18:40.983Z,2.10
2022-11-03T08:21:19.133Z,2.05
2022-11-03T08:23:56.689Z,2.10
2022-11-03T08:26:31.356Z,2.58
2022-11-03T08:29:06.976Z,2.03
2022-11-03T08:31:42.230Z,2.20
2022-11-03T08:34:21.607Z,2.15
2022-11-03T08:36:57.513Z,2.00
2022-11-03T08:39:33.325Z,1.90
2022-11-03T08:42:10.467Z,2.03
2022-11-03T08:44:47.746Z,1.70
2022-11-03T08:47:22.619Z,2.13
2022-11-03T08:49:59.603Z,2.40
2022-11-03T08:52:35.569Z,2.05
2022-11-03T08:55:13.588Z,2.17
2022-11-03T08:57:51.852Z,2.15
2022-11-03T09:00:27.739Z,2.10
2022-11-03T09:03:04.432Z,2.20
2022-11-03T09:05:41.959Z,2.28
2022-11-03T09:11:20.100Z,2.17
2022-11-03T09:13:56.036Z,1.95
2022-11-03T09:16:32.276Z,2.20
2022-11-03T09:19:08.958Z,2.20
2022-11-03T09:21:46.656Z,1.75
2022-11-03T09:24:22.264Z,2.05
2022-11-03T09:27:02.167Z,1.95
2022-11-03T09:30:06.702Z,1.90
2022-11-03T09:32:35.564Z,1.73
2022-11-03T09:35:13.654Z,2.05
2022-11-03T09:37:53.465Z,1.80
2022-11-03T09:40:31.361Z,2.08
2022-11-03T09:43:10.399Z,1.60
2022-11-03T09:45:48.467Z,1.90
2022-11-03T09:48:24.095Z,2.00
2022-11-03T09:51:03.225Z,2.00
2022-11-03T09:53:40.150Z,2.10
2022-11-03T09:56:15.735Z,1.77
2022-11-03T09:58:54.779Z,2.03
2022-11-03T10:01:31.109Z,2.50
2022-11-03T10:04:06.504Z,2.20
2022-11-03T10:06:42.760Z,2.13
2022-11-03T10:09:22.361Z,1.83
2022-11-03T10:11:59.603Z,2.28
2022-11-03T10:14:34.302Z,2.20
2022-11-03T10:17:09.165Z,2.10
2022-11-03T10:19:44.498Z,2.10
2022-11-03T10:22:19.480Z,2.05
2022-11-03T10:25:19.972Z,1.90
2022-11-03T10:27:59.071Z,2.17
2022-11-03T10:30:45.323Z,2.00
2022-11-03T10:33:38.765Z,1.80
2022-11-03T10:36:28.854Z,2.00
2022-11-03T10:39:04.070Z,1.60
2022-11-03T10:41:41.762Z,2.25
2022-11-03T10:44:23.786Z,2.17
2022-11-03T10:47:03.752Z,2.13
2022-11-03T10:49:43.702Z,1.75
2022-11-03T10:52:22.117Z,1.85
2022-11-03T10:54:57.887Z,2.30
2022-11-03T10:57:35.417Z,1.90
2022-11-03T11:00:17.328Z,1.98
2022-11-03T11:02:53.457Z,1.88
2022-11-03T11:05:29.163Z,1.80
2022-11-03T11:08:05.534Z,2.28
2022-11-03T11:10:40.055Z,2.25
2022-11-03T11:13:33.826Z,1.70
2022-11-03T11:16:10.732Z,2.10
2022-11-03T11:19:15.942Z,2.08
2022-11-03T11:22:03.315Z,1.90
2022-11-03T11:24:55.696Z,2.13
2022-11-03T11:27:58.244Z,1.88
2022-11-03T11:30:51.741Z,1.70
2022-11-03T11:33:31.405Z,1.80
2022-11-03T11:36:26.830Z,1.90
2022-11-03T11:39:06.541Z,1.90
2022-11-03T11:42:00.510Z,1.83
2022-11-03T11:45:02.095Z,1.58
2022-11-03T11:47:51.592Z,1.80
2022-11-03T11:50:43.293Z,1.73
2022-11-03T11:53:26.258Z,1.65
2022-11-03T11:56:05.710Z,1.80
2022-11-03T11:58:47.186Z,1.52
2022-11-03T12:01:30.174Z,1.70
2022-11-03T12:04:06.461Z,2.00
2022-11-03T12:09:26.628Z,1.65
2022-11-03T12:12:07.170Z,1.70
2022-11-03T12:14:43.863Z,1.50
2022-11-03T12:17:36.221Z,1.50
2022-11-03T12:20:40.921Z,1.90
2022-11-03T12:23:39.118Z,1.77
2022-11-03T12:26:22.621Z,1.92
2022-11-03T12:28:57.104Z,1.75
2022-11-03T12:31:36.950Z,1.73
2022-11-03T12:34:12.517Z,1.77
2022-11-03T12:36:48.740Z,1.77
2022-11-03T12:39:28.258Z,1.70
2022-11-03T12:42:03.532Z,1.80
2022-11-03T12:44:42.757Z,2.30
2022-11-03T12:47:18.867Z,2.03
2022-11-03T12:49:56.490Z,2.03
2022-11-03T12:52:32.509Z,2.03
2022-11-03T12:55:09.416Z,1.92
2022-11-03T12:57:44.311Z,1.95
2022-11-03T13:00:26.888Z,2.17
2022-11-03T13:03:24.477Z,1.90
2022-11-03T13:06:01.594Z,1.80
2022-11-03T13:08:38.329Z,1.80
2022-11-03T13:11:27.905Z,2.00
2022-11-03T13:14:04.007Z,1.90
2022-11-03T13:16:40.188Z,2.28
2022-11-03T13:19:15.837Z,2.50
2022-11-03T13:21:51.658Z,1.88
2022-11-03T13:24:28.471Z,1.75
2022-11-03T13:27:07.049Z,2.03
2022-11-03T13:29:42.482Z,2.25
2022-11-03T13:32:17.659Z,2.10
2022-11-03T13:34:53.695Z,1.80
2022-11-03T13:37:29.014Z,1.90
2022-11-03T13:40:05.235Z,2.20
2022-11-03T13:42:42.901Z,1.98
2022-11-03T13:45:19.004Z,2.15
2022-11-03T13:50:55.269Z,2.00
2022-11-03T13:56:29.902Z,2.00
2022-11-03T14:04:57.164Z,2.17
2022-11-03T14:07:32.851Z,1.60
2022-11-03T14:10:11.514Z,1.70
2022-11-03T14:12:45.548Z,1.70
2022-11-03T14:15:23.281Z,2.05
2022-11-03T14:18:01.133Z,1.65
2022-11-03T14:20:39.180Z,1.98
2022-11-03T14:23:15.868Z,1.92
2022-11-03T14:26:06.213Z,1.73
2022-11-03T14:28:49.452Z,1.88
2022-11-03T14:31:27.030Z,1.80
2022-11-03T14:34:02.891Z,1.80
2022-11-03T14:36:38.202Z,1.70
2022-11-03T14:39:15.560Z,1.50
2022-11-03T14:42:10.217Z,1.42
2022-11-03T14:44:46.912Z,1.60
2022-11-03T14:47:27.342Z,1.65
2022-11-03T14:50:03.630Z,1.65
2022-11-03T14:52:39.364Z,1.83
2022-11-03T14:55:24.822Z,1.70
2022-11-03T14:58:01.487Z,1.77
2022-11-03T15:00:41.612Z,1.45
2022-11-03T15:03:19.576Z,1.70
2022-11-03T15:05:57.283Z,1.77
2022-11-03T15:08:34.110Z,1.88
2022-11-03T15:11:13.185Z,1.50
2022-11-03T15:13:52.246Z,1.33
2022-11-03T15:16:29.628Z,1.60
2022-11-03T15:19:11.781Z,1.35
2022-11-03T15:21:47.925Z,1.50
2022-11-03T15:27:20.482Z,1.52
2022-11-03T15:29:59.854Z,1.30
2022-11-03T15:32:36.513Z,1.65
2022-11-03T15:35:22.040Z,1.98
2022-11-03T15:38:00.456Z,1.23
2022-11-03T15:40:36.859Z,1.50
2022-11-03T15:43:12.969Z,1.45
2022-11-03T15:45:53.989Z,1.60
2022-11-03T15:48:33.557Z,1.33
2022-11-03T15:51:12.264Z,1.77
2022-11-03T15:53:50.226Z,1.40
2022-11-03T15:56:31.283Z,1.63
2022-11-03T15:59:08.982Z,1.70
2022-11-03T16:01:44.314Z,1.60
2022-11-03T16:04:20.841Z,1.75
2022-11-03T16:07:07.667Z,1.70
2022-11-03T16:09:43.944Z,1.50
2022-11-03T16:12:19.510Z,1.50
2022-11-03T16:14:55.299Z,1.40
2022-11-03T16:17:31.123Z,1.52
2022-11-03T16:20:07.984Z,1.85
2022-11-03T16:22:45.683Z,1.50
2022-11-03T16:25:21.832Z,1.55
2022-11-03T16:27:58.358Z,1.70
2022-11-03T16:30:33.710Z,1.70
2022-11-03T16:33:09.515Z,1.48
2022-11-03T16:35:45.619Z,1.70
2022-11-03T16:38:24.198Z,1.40
2022-11-03T16:40:59.858Z,1.60
2022-11-03T16:43:36.962Z,1.50
2022-11-03T16:46:12.915Z,1.60
2022-11-03T16:48:48.933Z,1.60
2022-11-03T16:51:25.118Z,1.42
2022-11-03T16:54:06.775Z,1.60
2022-11-03T16:56:42.701Z,1.80
2022-11-03T16:59:25.237Z,1.27
2022-11-03T17:02:04.518Z,1.67
2022-11-03T17:04:39.704Z,1.50
2022-11-03T17:07:16.287Z,1.70
2022-11-03T17:09:53.850Z,1.40
2022-11-03T17:12:29.716Z,1.70
2022-11-03T17:15:06.413Z,1.70
2022-11-03T17:17:42.209Z,1.80
2022-11-03T17:20:19.885Z,1.90
2022-11-03T17:22:57.273Z,1.75
2022-11-03T17:25:35.876Z,2.08
2022-11-03T17:28:15.207Z,2.00
2022-11-03T17:30:51.214Z,2.13
2022-11-03T17:33:27.238Z,2.00
2022-11-03T17:36:03.594Z,1.80
2022-11-03T17:38:40.252Z,2.13
2022-11-03T17:41:19.152Z,2.20
2022-11-03T17:43:54.885Z,1.98
2022-11-03T17:46:30.904Z,2.00
2022-11-03T17:49:06.168Z,2.05
2022-11-03T17:51:47.299Z,1.90
2022-11-03T17:54:23.266Z,2.28
2022-11-03T17:57:01.510Z,2.10
2022-11-03T17:59:37.317Z,2.00
2022-11-03T18:02:20.766Z,2.10
2022-11-03T18:05:00.288Z,2.20
2022-11-03T18:07:38.562Z,2.10
2022-11-03T18:10:15.812Z,2.00
2022-11-03T18:13:12.458Z,2.10
2022-11-03T18:15:49.267Z,2.25
2022-11-03T18:18:35.252Z,2.08
2022-11-03T18:21:11.246Z,2.00
2022-11-03T18:23:48.844Z,2.38
2022-11-03T18:26:25.997Z,2.63
2022-11-03T18:29:03.699Z,2.47
2022-11-03T18:31:42.851Z,2.30
2022-11-03T18:34:21.240Z,2.65
2022-11-03T18:36:57.569Z,2.25
2022-11-03T18:39:34.459Z,2.10
2022-11-03T18:42:18.264Z,2.20
2022-11-03T18:44:59.851Z,1.90
2022-11-03T18:47:38.184Z,2.20
2022-11-03T18:50:18.189Z,2.22
2022-11-03T18:52:54.960Z,2.58
2022-11-03T18:55:33.425Z,2.17
2022-11-03T18:58:09.197Z,2.42
2022-11-03T19:00:47.163Z,2.95
2022-11-03T19:03:26.882Z,2.00
2022-11-03T19:06:09.466Z,2.15
2022-11-03T19:08:50.414Z,2.42
2022-11-03T19:11:29.554Z,1.83
2022-11-03T19:14:05.918Z,2.42
2022-11-03T19:17:02.001Z,2.25
2022-11-03T19:19:39.782Z,2.10
2022-11-03T19:22:18.602Z,2.40
2022-11-03T19:24:54.603Z,2.13
2022-11-03T19:27:32.374Z,2.25
2022-11-03T19:30:10.205Z,2.50
2022-11-03T19:32:50.349Z,2.88
2022-11-03T19:35:27.607Z,2.15
2022-11-03T19:38:08.280Z,2.53
2022-11-03T19:41:05.465Z,2.20
2022-11-03T19:43:39.065Z,2.13
2022-11-03T19:46:22.647Z,2.20
2022-11-03T19:49:01.277Z,2.40
2022-11-03T19:51:38.524Z,2.47
2022-11-03T19:54:22.788Z,2.42
2022-11-03T19:57:00.915Z,2.50
2022-11-03T19:59:36.745Z,2.58
2022-11-03T20:02:12.095Z,2.28
2022-11-03T20:04:52.682Z,2.55
2022-11-03T20:07:31.783Z,2.70
2022-11-03T20:10:08.694Z,2.47
2022-11-03T20:12:44.365Z,2.58
2022-11-03T20:15:21.892Z,2.45
2022-11-03T20:17:57.590Z,2.80
2022-11-03T20:20:39.112Z,2.70
2022-11-03T20:23:23.560Z,3.20
2022-11-03T20:25:58.796Z,2.50
2022-11-03T20:28:36.822Z,2.60
2022-11-03T20:31:12.584Z,2.42
2022-11-03T20:33:48.720Z,2.30
2022-11-03T20:36:28.124Z,2.60
2022-11-03T20:39:06.022Z,2.03
2022-11-03T20:41:42.238Z,2.20
2022-11-03T20:44:19.171Z,2.20
2022-11-03T20:46:54.314Z,2.10
2022-11-03T20:49:30.159Z,2.28
2022-11-03T20:52:08.437Z,2.20
2022-11-03T20:54:44.976Z,2.00
2022-11-03T20:57:20.678Z,2.42
2022-11-03T20:59:56.688Z,1.90
2022-11-03T21:02:33.394Z,2.22
2022-11-03T21:05:14.057Z,2.05
2022-11-03T21:07:56.575Z,2.10
2022-11-03T21:10:32.614Z,1.88
2022-11-03T21:13:08.475Z,1.95
2022-11-03T21:16:22.981Z,2.15
2022-11-03T21:19:14.130Z,2.10
2022-11-03T21:21:49.778Z,2.25
2022-11-03T21:27:02.930Z,2.30
2022-11-03T21:29:58.370Z,2.08
2022-11-03T21:32:34.503Z,1.83
2022-11-03T21:35:11.041Z,1.80
2022-11-03T21:37:46.738Z,2.10
2022-11-03T21:40:24.975Z,2.20
2022-11-03T21:43:16.073Z,1.90
2022-11-03T21:45:54.765Z,2.55
2022-11-03T21:48:45.827Z,2.30
2022-11-03T21:51:22.206Z,2.38
2022-11-03T21:53:58.864Z,2.22
2022-11-03T22:01:10.848Z,2.53
2022-11-03T22:03:48.419Z,2.92
2022-11-03T22:06:25.339Z,2.75
2022-11-03T22:09:01.211Z,2.78
2022-11-03T22:11:57.684Z,2.15
2022-11-03T22:14:54.286Z,2.60
2022-11-03T22:17:29.847Z,2.60
2022-11-03T22:20:20.937Z,2.97
2022-11-03T22:23:23.633Z,2.72
2022-11-03T22:26:23.608Z,3.40
2022-11-03T22:29:29.336Z,2.70
2022-11-03T22:32:03.036Z,2.20
2022-11-03T22:34:56.363Z,2.95
2022-11-03T22:40:20.959Z,2.10
2022-11-03T22:43:13.663Z,1.83
2022-11-03T22:45:56.680Z,2.05
2022-11-03T22:48:32.490Z,2.10
2022-11-03T22:51:13.018Z,1.95
2022-11-03T22:54:07.591Z,2.20
2022-11-03T22:56:44.139Z,2.08
2022-11-03T22:59:19.789Z,2.10
2022-11-03T23:01:57.025Z,2.33
2022-11-03T23:04:32.679Z,2.03
2022-11-03T23:07:14.152Z,2.40
2022-11-03T23:09:50.351Z,2.30
2022-11-03T23:12:28.986Z,2.10
2022-11-03T23:15:20.155Z,1.50
2022-11-03T23:18:12.043Z,1.90
2022-11-03T23:21:02.912Z,1.80
2022-11-03T23:23:58.122Z,2.13
2022-11-03T23:26:34.126Z,1.90
2022-11-03T23:29:10.764Z,2.10
2022-11-03T23:31:46.808Z,1.90
2022-11-03T23:34:26.365Z,1.90
2022-11-03T23:37:03.252Z,2.20
2022-11-03T23:39:41.727Z,2.08
2022-11-03T23:42:17.742Z,1.90
2022-11-03T23:45:09.271Z,2.03
2022-11-03T23:48:00.535Z,2.00
2022-11-03T23:50:38.088Z,1.70
2022-11-03T23:53:15.973Z,1.60
2022-11-03T23:56:05.092Z,1.77
2022-11-03T23:58:41.786Z,1.70
